sensor_id;sensor_type;location;lat;lon;timestamp;P1;durP1;ratioP1;P2;durP2;ratioP2
50291;SDS011;36190;54.980;73.388;2023-04-28T00:00:27;11.90;;;4.03;;
50291;SDS011;36190;54.980;73.388;2023-04-28T00:02:55;12.50;;;4.50;;
50291;SDS011;36190;54.980;73.388;2023-04-28T00:05:22;15.00;;;4.88;;
50291;SDS011;36190;54.980;73.388;2023-04-28T00:07:50;15.00;;;4.60;;
50291;SDS011;36190;54.980;73.388;2023-04-28T00:10:19;14.05;;;4.88;;
50291;SDS011;36190;54.980;73.388;2023-04-28T00:12:46;15.38;;;4.80;;
50291;SDS011;36190;54.980;73.388;2023-04-28T00:15:13;11.55;;;5.15;;
50291;SDS011;36190;54.980;73.388;2023-04-28T00:17:41;16.33;;;5.60;;
50291;SDS011;36190;54.980;73.388;2023-04-28T00:20:09;15.07;;;5.18;;
50291;SDS011;36190;54.980;73.388;2023-04-28T00:22:37;12.30;;;5.20;;
50291;SDS011;36190;54.980;73.388;2023-04-28T00:25:05;14.05;;;5.15;;
50291;SDS011;36190;54.980;73.388;2023-04-28T00:27:35;12.05;;;5.13;;
50291;SDS011;36190;54.980;73.388;2023-04-28T00:30:02;15.18;;;5.07;;
50291;SDS011;36190;54.980;73.388;2023-04-28T00:32:30;13.75;;;5.28;;
50291;SDS011;36190;54.980;73.388;2023-04-28T00:34:58;12.05;;;4.88;;
50291;SDS011;36190;54.980;73.388;2023-04-28T00:37:25;11.77;;;4.68;;
50291;SDS011;36190;54.980;73.388;2023-04-28T00:39:56;14.50;;;5.30;;
50291;SDS011;36190;54.980;73.388;2023-04-28T00:42:23;10.07;;;4.30;;
50291;SDS011;36190;54.980;73.388;2023-04-28T00:44:52;11.57;;;4.38;;
50291;SDS011;36190;54.980;73.388;2023-04-28T00:47:20;11.32;;;4.97;;
50291;SDS011;36190;54.980;73.388;2023-04-28T00:49:48;13.90;;;4.80;;
50291;SDS011;36190;54.980;73.388;2023-04-28T00:52:16;13.82;;;4.90;;
50291;SDS011;36190;54.980;73.388;2023-04-28T00:54:44;15.80;;;4.20;;
50291;SDS011;36190;54.980;73.388;2023-04-28T00:57:13;15.88;;;4.82;;
50291;SDS011;36190;54.980;73.388;2023-04-28T00:59:40;11.82;;;4.50;;
50291;SDS011;36190;54.980;73.388;2023-04-28T01:02:09;13.80;;;5.18;;
50291;SDS011;36190;54.980;73.388;2023-04-28T01:04:41;9.45;;;4.35;;
50291;SDS011;36190;54.980;73.388;2023-04-28T01:07:09;12.40;;;5.05;;
50291;SDS011;36190;54.980;73.388;2023-04-28T01:09:37;12.73;;;5.05;;
50291;SDS011;36190;54.980;73.388;2023-04-28T01:12:04;11.45;;;4.97;;
50291;SDS011;36190;54.980;73.388;2023-04-28T01:14:32;10.73;;;4.65;;
50291;SDS011;36190;54.980;73.388;2023-04-28T01:17:00;13.95;;;4.85;;
50291;SDS011;36190;54.980;73.388;2023-04-28T01:19:29;11.45;;;4.40;;
50291;SDS011;36190;54.980;73.388;2023-04-28T01:21:57;13.07;;;4.70;;
50291;SDS011;36190;54.980;73.388;2023-04-28T01:24:26;11.98;;;4.32;;
50291;SDS011;36190;54.980;73.388;2023-04-28T01:26:53;15.45;;;4.38;;
50291;SDS011;36190;54.980;73.388;2023-04-28T01:29:20;15.25;;;4.53;;
50291;SDS011;36190;54.980;73.388;2023-04-28T01:31:48;11.38;;;4.28;;
50291;SDS011;36190;54.980;73.388;2023-04-28T01:34:15;12.07;;;3.92;;
50291;SDS011;36190;54.980;73.388;2023-04-28T01:36:43;11.57;;;3.88;;
50291;SDS011;36190;54.980;73.388;2023-04-28T01:39:10;10.20;;;3.65;;
50291;SDS011;36190;54.980;73.388;2023-04-28T01:41:39;14.48;;;3.95;;
50291;SDS011;36190;54.980;73.388;2023-04-28T01:44:07;12.55;;;3.83;;
50291;SDS011;36190;54.980;73.388;2023-04-28T01:46:34;13.93;;;3.97;;
50291;SDS011;36190;54.980;73.388;2023-04-28T01:49:01;12.73;;;3.80;;
50291;SDS011;36190;54.980;73.388;2023-04-28T01:51:29;15.88;;;3.97;;
50291;SDS011;36190;54.980;73.388;2023-04-28T01:53:57;12.60;;;3.90;;
50291;SDS011;36190;54.980;73.388;2023-04-28T01:56:24;12.35;;;3.47;;
50291;SDS011;36190;54.980;73.388;2023-04-28T01:58:53;11.98;;;3.97;;
50291;SDS011;36190;54.980;73.388;2023-04-28T02:01:20;12.05;;;3.42;;
50291;SDS011;36190;54.980;73.388;2023-04-28T02:03:48;8.43;;;2.97;;
50291;SDS011;36190;54.980;73.388;2023-04-28T02:06:15;11.77;;;3.67;;
50291;SDS011;36190;54.980;73.388;2023-04-28T02:08:43;12.02;;;3.60;;
50291;SDS011;36190;54.980;73.388;2023-04-28T02:11:10;11.23;;;3.40;;
50291;SDS011;36190;54.980;73.388;2023-04-28T02:13:38;14.43;;;3.63;;
50291;SDS011;36190;54.980;73.388;2023-04-28T02:16:07;12.88;;;3.10;;
50291;SDS011;36190;54.980;73.388;2023-04-28T02:18:35;13.98;;;3.97;;
50291;SDS011;36190;54.980;73.388;2023-04-28T02:21:07;14.15;;;3.67;;
50291;SDS011;36190;54.980;73.388;2023-04-28T02:23:35;16.83;;;3.88;;
50291;SDS011;36190;54.980;73.388;2023-04-28T02:26:03;21.00;;;3.92;;
50291;SDS011;36190;54.980;73.388;2023-04-28T02:28:31;10.25;;;3.25;;
50291;SDS011;36190;54.980;73.388;2023-04-28T02:31:05;13.85;;;3.88;;
50291;SDS011;36190;54.980;73.388;2023-04-28T02:33:35;12.85;;;3.53;;
50291;SDS011;36190;54.980;73.388;2023-04-28T02:36:04;13.30;;;3.95;;
50291;SDS011;36190;54.980;73.388;2023-04-28T02:38:32;16.42;;;3.80;;
50291;SDS011;36190;54.980;73.388;2023-04-28T02:41:00;12.68;;;3.67;;
50291;SDS011;36190;54.980;73.388;2023-04-28T02:43:29;11.50;;;3.25;;
50291;SDS011;36190;54.980;73.388;2023-04-28T02:45:57;13.05;;;3.60;;
50291;SDS011;36190;54.980;73.388;2023-04-28T02:48:26;18.02;;;4.00;;
50291;SDS011;36190;54.980;73.388;2023-04-28T02:50:53;11.95;;;3.90;;
50291;SDS011;36190;54.980;73.388;2023-04-28T02:53:21;15.02;;;4.15;;
50291;SDS011;36190;54.980;73.388;2023-04-28T02:55:49;13.40;;;3.65;;
50291;SDS011;36190;54.980;73.388;2023-04-28T02:58:16;21.52;;;3.58;;
50291;SDS011;36190;54.980;73.388;2023-04-28T03:00:43;18.63;;;4.25;;
50291;SDS011;36190;54.980;73.388;2023-04-28T03:03:11;16.40;;;3.50;;
50291;SDS011;36190;54.980;73.388;2023-04-28T03:05:40;14.07;;;3.55;;
50291;SDS011;36190;54.980;73.388;2023-04-28T03:08:07;18.10;;;4.22;;
50291;SDS011;36190;54.980;73.388;2023-04-28T03:10:35;13.63;;;3.92;;
50291;SDS011;36190;54.980;73.388;2023-04-28T03:13:02;14.30;;;3.97;;
50291;SDS011;36190;54.980;73.388;2023-04-28T03:15:30;17.15;;;4.57;;
50291;SDS011;36190;54.980;73.388;2023-04-28T03:17:57;19.88;;;4.50;;
50291;SDS011;36190;54.980;73.388;2023-04-28T03:20:25;15.88;;;4.25;;
50291;SDS011;36190;54.980;73.388;2023-04-28T03:22:54;20.63;;;4.65;;
50291;SDS011;36190;54.980;73.388;2023-04-28T03:25:21;21.58;;;4.65;;
50291;SDS011;36190;54.980;73.388;2023-04-28T03:27:49;19.08;;;4.20;;
50291;SDS011;36190;54.980;73.388;2023-04-28T03:30:16;18.42;;;4.03;;
50291;SDS011;36190;54.980;73.388;2023-04-28T03:32:44;17.30;;;4.50;;
50291;SDS011;36190;54.980;73.388;2023-04-28T03:35:11;16.77;;;4.15;;
50291;SDS011;36190;54.980;73.388;2023-04-28T03:37:39;19.63;;;5.10;;
50291;SDS011;36190;54.980;73.388;2023-04-28T03:40:08;16.27;;;4.20;;
50291;SDS011;36190;54.980;73.388;2023-04-28T03:42:36;22.20;;;4.70;;
50291;SDS011;36190;54.980;73.388;2023-04-28T03:45:04;21.00;;;4.72;;
50291;SDS011;36190;54.980;73.388;2023-04-28T03:47:32;18.00;;;4.00;;
50291;SDS011;36190;54.980;73.388;2023-04-28T03:50:00;18.45;;;4.65;;
50291;SDS011;36190;54.980;73.388;2023-04-28T03:52:28;15.50;;;3.95;;
50291;SDS011;36190;54.980;73.388;2023-04-28T03:54:55;22.60;;;4.60;;
50291;SDS011;36190;54.980;73.388;2023-04-28T03:57:24;17.50;;;4.28;;
50291;SDS011;36190;54.980;73.388;2023-04-28T03:59:51;16.30;;;4.25;;
50291;SDS011;36190;54.980;73.388;2023-04-28T04:02:19;19.98;;;4.57;;
50291;SDS011;36190;54.980;73.388;2023-04-28T04:04:46;27.10;;;4.78;;
50291;SDS011;36190;54.980;73.388;2023-04-28T04:07:14;16.50;;;4.25;;
50291;SDS011;36190;54.980;73.388;2023-04-28T04:09:41;16.00;;;3.92;;
50291;SDS011;36190;54.980;73.388;2023-04-28T04:12:09;15.55;;;4.00;;
50291;SDS011;36190;54.980;73.388;2023-04-28T04:14:38;14.75;;;3.90;;
50291;SDS011;36190;54.980;73.388;2023-04-28T04:17:05;15.93;;;4.22;;
50291;SDS011;36190;54.980;73.388;2023-04-28T04:19:33;15.95;;;4.25;;
50291;SDS011;36190;54.980;73.388;2023-04-28T04:22:00;17.05;;;4.55;;
50291;SDS011;36190;54.980;73.388;2023-04-28T04:24:27;20.42;;;4.57;;
50291;SDS011;36190;54.980;73.388;2023-04-28T04:26:55;14.15;;;4.25;;
50291;SDS011;36190;54.980;73.388;2023-04-28T04:29:22;21.73;;;4.28;;
50291;SDS011;36190;54.980;73.388;2023-04-28T04:31:51;24.42;;;4.05;;
50291;SDS011;36190;54.980;73.388;2023-04-28T04:34:19;26.92;;;4.70;;
50291;SDS011;36190;54.980;73.388;2023-04-28T04:36:46;23.65;;;4.60;;
50291;SDS011;36190;54.980;73.388;2023-04-28T04:39:14;19.40;;;4.50;;
50291;SDS011;36190;54.980;73.388;2023-04-28T04:41:41;25.92;;;3.97;;
50291;SDS011;36190;54.980;73.388;2023-04-28T04:44:08;22.15;;;4.53;;
50291;SDS011;36190;54.980;73.388;2023-04-28T04:46:37;18.27;;;4.13;;
50291;SDS011;36190;54.980;73.388;2023-04-28T04:49:05;22.33;;;4.50;;
50291;SDS011;36190;54.980;73.388;2023-04-28T04:51:33;22.27;;;4.00;;
50291;SDS011;36190;54.980;73.388;2023-04-28T04:54:01;20.30;;;4.07;;
50291;SDS011;36190;54.980;73.388;2023-04-28T04:56:28;20.55;;;4.28;;
50291;SDS011;36190;54.980;73.388;2023-04-28T04:58:56;22.63;;;4.30;;
50291;SDS011;36190;54.980;73.388;2023-04-28T05:01:23;20.92;;;4.53;;
50291;SDS011;36190;54.980;73.388;2023-04-28T05:03:51;19.23;;;4.05;;
50291;SDS011;36190;54.980;73.388;2023-04-28T05:06:20;27.63;;;4.72;;
50291;SDS011;36190;54.980;73.388;2023-04-28T05:08:48;30.25;;;6.53;;
50291;SDS011;36190;54.980;73.388;2023-04-28T05:11:15;27.40;;;5.35;;
50291;SDS011;36190;54.980;73.388;2023-04-28T05:13:43;24.48;;;4.95;;
50291;SDS011;36190;54.980;73.388;2023-04-28T05:16:10;19.73;;;4.85;;
50291;SDS011;36190;54.980;73.388;2023-04-28T05:18:38;20.05;;;4.60;;
50291;SDS011;36190;54.980;73.388;2023-04-28T05:21:05;24.02;;;4.55;;
50291;SDS011;36190;54.980;73.388;2023-04-28T05:23:34;19.98;;;4.45;;
50291;SDS011;36190;54.980;73.388;2023-04-28T05:26:02;26.35;;;5.85;;
50291;SDS011;36190;54.980;73.388;2023-04-28T05:28:29;24.20;;;4.60;;
50291;SDS011;36190;54.980;73.388;2023-04-28T05:30:57;21.02;;;4.85;;
50291;SDS011;36190;54.980;73.388;2023-04-28T05:33:24;21.13;;;4.70;;
50291;SDS011;36190;54.980;73.388;2023-04-28T05:35:52;20.10;;;4.85;;
50291;SDS011;36190;54.980;73.388;2023-04-28T05:38:19;24.55;;;4.97;;
50291;SDS011;36190;54.980;73.388;2023-04-28T05:40:48;19.98;;;4.45;;
50291;SDS011;36190;54.980;73.388;2023-04-28T05:43:16;24.50;;;5.13;;
50291;SDS011;36190;54.980;73.388;2023-04-28T05:45:43;30.90;;;6.10;;
50291;SDS011;36190;54.980;73.388;2023-04-28T05:48:11;25.52;;;5.32;;
50291;SDS011;36190;54.980;73.388;2023-04-28T05:50:38;26.77;;;4.85;;
50291;SDS011;36190;54.980;73.388;2023-04-28T05:53:06;22.17;;;4.63;;
50291;SDS011;36190;54.980;73.388;2023-04-28T05:55:33;23.75;;;5.15;;
50291;SDS011;36190;54.980;73.388;2023-04-28T05:58:03;29.73;;;5.30;;
50291;SDS011;36190;54.980;73.388;2023-04-28T06:00:31;24.85;;;5.55;;
50291;SDS011;36190;54.980;73.388;2023-04-28T06:02:59;26.23;;;5.32;;
50291;SDS011;36190;54.980;73.388;2023-04-28T06:05:27;24.60;;;4.80;;
50291;SDS011;36190;54.980;73.388;2023-04-28T06:07:54;26.20;;;5.78;;
50291;SDS011;36190;54.980;73.388;2023-04-28T06:10:24;32.33;;;6.57;;
50291;SDS011;36190;54.980;73.388;2023-04-28T06:12:51;26.83;;;5.40;;
50291;SDS011;36190;54.980;73.388;2023-04-28T06:15:20;20.60;;;5.60;;
50291;SDS011;36190;54.980;73.388;2023-04-28T06:17:48;24.60;;;5.72;;
50291;SDS011;36190;54.980;73.388;2023-04-28T06:20:15;28.60;;;6.40;;
50291;SDS011;36190;54.980;73.388;2023-04-28T06:22:42;32.13;;;6.38;;
50291;SDS011;36190;54.980;73.388;2023-04-28T06:25:10;41.22;;;6.38;;
50291;SDS011;36190;54.980;73.388;2023-04-28T06:27:37;35.25;;;6.88;;
50291;SDS011;36190;54.980;73.388;2023-04-28T06:30:06;40.67;;;7.35;;
50291;SDS011;36190;54.980;73.388;2023-04-28T06:32:35;36.63;;;7.90;;
50291;SDS011;36190;54.980;73.388;2023-04-28T06:35:03;31.17;;;7.63;;
50291;SDS011;36190;54.980;73.388;2023-04-28T06:37:31;26.27;;;7.13;;
50291;SDS011;36190;54.980;73.388;2023-04-28T06:39:58;41.63;;;8.15;;
50291;SDS011;36190;54.980;73.388;2023-04-28T06:42:26;49.08;;;7.93;;
50291;SDS011;36190;54.980;73.388;2023-04-28T06:44:53;34.13;;;6.95;;
50291;SDS011;36190;54.980;73.388;2023-04-28T06:47:21;28.85;;;7.45;;
50291;SDS011;36190;54.980;73.388;2023-04-28T06:49:50;29.60;;;6.88;;
50291;SDS011;36190;54.980;73.388;2023-04-28T06:52:18;34.72;;;7.32;;
50291;SDS011;36190;54.980;73.388;2023-04-28T06:54:46;41.38;;;7.43;;
50291;SDS011;36190;54.980;73.388;2023-04-28T06:57:13;33.00;;;6.93;;
50291;SDS011;36190;54.980;73.388;2023-04-28T06:59:41;33.33;;;8.18;;
50291;SDS011;36190;54.980;73.388;2023-04-28T07:02:10;34.35;;;7.88;;
50291;SDS011;36190;54.980;73.388;2023-04-28T07:04:38;33.95;;;6.65;;
50291;SDS011;36190;54.980;73.388;2023-04-28T07:07:06;32.38;;;6.55;;
50291;SDS011;36190;54.980;73.388;2023-04-28T07:09:34;37.17;;;7.20;;
50291;SDS011;36190;54.980;73.388;2023-04-28T07:12:02;42.72;;;8.30;;
50291;SDS011;36190;54.980;73.388;2023-04-28T07:14:30;38.55;;;7.00;;
50291;SDS011;36190;54.980;73.388;2023-04-28T07:16:58;32.53;;;6.53;;
50291;SDS011;36190;54.980;73.388;2023-04-28T07:19:25;36.53;;;6.43;;
50291;SDS011;36190;54.980;73.388;2023-04-28T07:21:53;33.03;;;7.03;;
50291;SDS011;36190;54.980;73.388;2023-04-28T07:24:22;30.08;;;5.90;;
50291;SDS011;36190;54.980;73.388;2023-04-28T07:26:49;28.13;;;5.97;;
50291;SDS011;36190;54.980;73.388;2023-04-28T07:29:17;28.88;;;6.10;;
50291;SDS011;36190;54.980;73.388;2023-04-28T07:31:44;26.77;;;6.10;;
50291;SDS011;36190;54.980;73.388;2023-04-28T07:34:12;24.35;;;5.28;;
50291;SDS011;36190;54.980;73.388;2023-04-28T07:36:39;27.98;;;6.28;;
50291;SDS011;36190;54.980;73.388;2023-04-28T07:39:07;20.80;;;5.05;;
50291;SDS011;36190;54.980;73.388;2023-04-28T07:41:36;22.83;;;5.20;;
50291;SDS011;36190;54.980;73.388;2023-04-28T07:44:04;32.35;;;6.35;;
50291;SDS011;36190;54.980;73.388;2023-04-28T07:46:32;27.38;;;5.95;;
50291;SDS011;36190;54.980;73.388;2023-04-28T07:49:00;24.23;;;5.20;;
50291;SDS011;36190;54.980;73.388;2023-04-28T07:51:29;22.90;;;4.97;;
50291;SDS011;36190;54.980;73.388;2023-04-28T07:53:56;20.77;;;5.43;;
50291;SDS011;36190;54.980;73.388;2023-04-28T07:56:24;26.55;;;5.10;;
50291;SDS011;36190;54.980;73.388;2023-04-28T07:58:53;26.70;;;5.53;;
50291;SDS011;36190;54.980;73.388;2023-04-28T08:01:21;28.52;;;5.18;;
50291;SDS011;36190;54.980;73.388;2023-04-28T08:03:48;28.05;;;5.00;;
50291;SDS011;36190;54.980;73.388;2023-04-28T08:06:16;21.45;;;4.90;;
50291;SDS011;36190;54.980;73.388;2023-04-28T08:08:43;28.48;;;4.70;;
50291;SDS011;36190;54.980;73.388;2023-04-28T08:11:11;20.95;;;4.82;;
50291;SDS011;36190;54.980;73.388;2023-04-28T08:13:38;23.10;;;5.07;;
50291;SDS011;36190;54.980;73.388;2023-04-28T08:16:08;19.00;;;4.53;;
50291;SDS011;36190;54.980;73.388;2023-04-28T08:18:35;18.95;;;4.38;;
50291;SDS011;36190;54.980;73.388;2023-04-28T08:21:03;18.20;;;4.57;;
50291;SDS011;36190;54.980;73.388;2023-04-28T08:23:30;20.90;;;4.70;;
50291;SDS011;36190;54.980;73.388;2023-04-28T08:25:58;24.95;;;5.18;;
50291;SDS011;36190;54.980;73.388;2023-04-28T08:28:25;25.42;;;4.75;;
50291;SDS011;36190;54.980;73.388;2023-04-28T08:30:53;19.40;;;4.38;;
50291;SDS011;36190;54.980;73.388;2023-04-28T08:33:23;21.48;;;4.85;;
50291;SDS011;36190;54.980;73.388;2023-04-28T08:35:51;16.83;;;4.07;;
50291;SDS011;36190;54.980;73.388;2023-04-28T08:38:19;21.48;;;4.18;;
50291;SDS011;36190;54.980;73.388;2023-04-28T08:40:48;18.45;;;4.30;;
50291;SDS011;36190;54.980;73.388;2023-04-28T08:43:16;21.48;;;4.13;;
50291;SDS011;36190;54.980;73.388;2023-04-28T08:45:45;17.08;;;3.92;;
50291;SDS011;36190;54.980;73.388;2023-04-28T08:48:16;14.77;;;4.10;;
50291;SDS011;36190;54.980;73.388;2023-04-28T08:50:48;16.85;;;4.88;;
50291;SDS011;36190;54.980;73.388;2023-04-28T08:53:21;14.95;;;3.85;;
50291;SDS011;36190;54.980;73.388;2023-04-28T08:55:51;21.48;;;4.53;;
50291;SDS011;36190;54.980;73.388;2023-04-28T08:58:22;20.15;;;4.68;;
50291;SDS011;36190;54.980;73.388;2023-04-28T09:00:50;16.95;;;4.15;;
50291;SDS011;36190;54.980;73.388;2023-04-28T09:03:18;15.95;;;3.85;;
50291;SDS011;36190;54.980;73.388;2023-04-28T09:05:47;22.73;;;4.45;;
50291;SDS011;36190;54.980;73.388;2023-04-28T09:08:15;20.45;;;4.75;;
50291;SDS011;36190;54.980;73.388;2023-04-28T09:10:43;30.70;;;5.65;;
50291;SDS011;36190;54.980;73.388;2023-04-28T09:13:22;25.85;;;4.75;;
50291;SDS011;36190;54.980;73.388;2023-04-28T09:15:50;19.42;;;4.38;;
50291;SDS011;36190;54.980;73.388;2023-04-28T09:18:27;19.50;;;4.60;;
50291;SDS011;36190;54.980;73.388;2023-04-28T09:21:08;25.65;;;5.13;;
50291;SDS011;36190;54.980;73.388;2023-04-28T09:23:45;22.60;;;4.57;;
50291;SDS011;36190;54.980;73.388;2023-04-28T09:26:13;21.48;;;4.47;;
50291;SDS011;36190;54.980;73.388;2023-04-28T09:28:41;16.55;;;4.50;;
50291;SDS011;36190;54.980;73.388;2023-04-28T09:31:20;17.10;;;5.00;;
50291;SDS011;36190;54.980;73.388;2023-04-28T09:33:56;34.80;;;6.18;;
50291;SDS011;36190;54.980;73.388;2023-04-28T09:36:28;27.90;;;4.88;;
50291;SDS011;36190;54.980;73.388;2023-04-28T09:38:57;19.25;;;4.40;;
50291;SDS011;36190;54.980;73.388;2023-04-28T09:41:34;23.08;;;5.18;;
50291;SDS011;36190;54.980;73.388;2023-04-28T09:44:09;18.52;;;4.97;;
50291;SDS011;36190;54.980;73.388;2023-04-28T09:46:40;17.58;;;4.72;;
50291;SDS011;36190;54.980;73.388;2023-04-28T09:49:09;16.02;;;5.20;;
50291;SDS011;36190;54.980;73.388;2023-04-28T09:51:38;18.02;;;4.90;;
50291;SDS011;36190;54.980;73.388;2023-04-28T09:54:05;20.73;;;4.80;;
50291;SDS011;36190;54.980;73.388;2023-04-28T09:56:33;20.25;;;4.32;;
50291;SDS011;36190;54.980;73.388;2023-04-28T09:59:02;19.52;;;4.80;;
50291;SDS011;36190;54.980;73.388;2023-04-28T10:01:31;16.40;;;4.68;;
50291;SDS011;36190;54.980;73.388;2023-04-28T10:04:03;23.05;;;4.93;;
50291;SDS011;36190;54.980;73.388;2023-04-28T10:06:32;16.98;;;4.50;;
50291;SDS011;36190;54.980;73.388;2023-04-28T10:09:03;18.27;;;4.80;;
50291;SDS011;36190;54.980;73.388;2023-04-28T10:11:32;18.42;;;5.10;;
50291;SDS011;36190;54.980;73.388;2023-04-28T10:13:59;20.70;;;6.05;;
50291;SDS011;36190;54.980;73.388;2023-04-28T10:16:28;25.10;;;6.32;;
50291;SDS011;36190;54.980;73.388;2023-04-28T10:18:57;28.38;;;6.57;;
50291;SDS011;36190;54.980;73.388;2023-04-28T10:21:25;16.98;;;6.53;;
50291;SDS011;36190;54.980;73.388;2023-04-28T10:23:58;18.02;;;5.38;;
50291;SDS011;36190;54.980;73.388;2023-04-28T10:29:31;17.83;;;6.97;;
50291;SDS011;36190;54.980;73.388;2023-04-28T10:32:15;21.75;;;7.05;;
50291;SDS011;36190;54.980;73.388;2023-04-28T10:34:50;21.55;;;6.80;;
50291;SDS011;36190;54.980;73.388;2023-04-28T10:37:18;23.50;;;7.20;;
50291;SDS011;36190;54.980;73.388;2023-04-28T10:51:29;20.35;;;7.88;;
50291;SDS011;36190;54.980;73.388;2023-04-28T10:54:07;20.13;;;6.82;;
50291;SDS011;36190;54.980;73.388;2023-04-28T10:56:35;21.25;;;7.80;;
50291;SDS011;36190;54.980;73.388;2023-04-28T10:59:23;22.48;;;7.75;;
50291;SDS011;36190;54.980;73.388;2023-04-28T11:01:52;21.33;;;7.25;;
50291;SDS011;36190;54.980;73.388;2023-04-28T11:04:19;19.45;;;6.88;;
50291;SDS011;36190;54.980;73.388;2023-04-28T11:09:47;16.67;;;6.38;;
50291;SDS011;36190;54.980;73.388;2023-04-28T11:12:17;19.95;;;6.82;;
50291;SDS011;36190;54.980;73.388;2023-04-28T11:14:46;14.32;;;5.60;;
50291;SDS011;36190;54.980;73.388;2023-04-28T11:17:13;17.80;;;5.07;;
50291;SDS011;36190;54.980;73.388;2023-04-28T11:19:44;18.83;;;6.30;;
50291;SDS011;36190;54.980;73.388;2023-04-28T11:22:13;18.85;;;5.78;;
50291;SDS011;36190;54.980;73.388;2023-04-28T11:24:42;20.52;;;6.05;;
50291;SDS011;36190;54.980;73.388;2023-04-28T11:27:24;11.48;;;4.90;;
50291;SDS011;36190;54.980;73.388;2023-04-28T11:29:54;15.38;;;4.80;;
50291;SDS011;36190;54.980;73.388;2023-04-28T11:32:25;13.93;;;4.60;;
50291;SDS011;36190;54.980;73.388;2023-04-28T11:34:54;14.80;;;5.30;;
50291;SDS011;36190;54.980;73.388;2023-04-28T11:37:21;15.13;;;5.13;;
50291;SDS011;36190;54.980;73.388;2023-04-28T11:39:49;20.20;;;5.07;;
50291;SDS011;36190;54.980;73.388;2023-04-28T11:42:17;15.02;;;4.53;;
50291;SDS011;36190;54.980;73.388;2023-04-28T11:44:48;15.65;;;4.40;;
50291;SDS011;36190;54.980;73.388;2023-04-28T11:47:28;17.50;;;5.15;;
50291;SDS011;36190;54.980;73.388;2023-04-28T11:49:56;16.83;;;5.63;;
50291;SDS011;36190;54.980;73.388;2023-04-28T11:52:25;15.55;;;5.03;;
50291;SDS011;36190;54.980;73.388;2023-04-28T11:54:53;19.58;;;5.70;;
50291;SDS011;36190;54.980;73.388;2023-04-28T11:57:21;11.93;;;5.05;;
50291;SDS011;36190;54.980;73.388;2023-04-28T11:59:49;13.32;;;4.63;;
50291;SDS011;36190;54.980;73.388;2023-04-28T12:02:23;12.57;;;4.38;;
50291;SDS011;36190;54.980;73.388;2023-04-28T12:04:55;17.45;;;4.47;;
50291;SDS011;36190;54.980;73.388;2023-04-28T12:07:22;15.57;;;4.45;;
50291;SDS011;36190;54.980;73.388;2023-04-28T12:12:40;12.52;;;3.85;;
50291;SDS011;36190;54.980;73.388;2023-04-28T12:15:08;11.73;;;4.18;;
50291;SDS011;36190;54.980;73.388;2023-04-28T12:17:37;12.70;;;3.90;;
50291;SDS011;36190;54.980;73.388;2023-04-28T12:20:08;14.38;;;3.85;;
50291;SDS011;36190;54.980;73.388;2023-04-28T12:22:43;12.55;;;4.97;;
50291;SDS011;36190;54.980;73.388;2023-04-28T12:25:12;14.38;;;4.05;;
50291;SDS011;36190;54.980;73.388;2023-04-28T12:27:41;12.23;;;3.92;;
50291;SDS011;36190;54.980;73.388;2023-04-28T12:30:25;13.40;;;4.53;;
50291;SDS011;36190;54.980;73.388;2023-04-28T12:32:52;8.77;;;3.63;;
50291;SDS011;36190;54.980;73.388;2023-04-28T12:35:21;13.88;;;4.00;;
50291;SDS011;36190;54.980;73.388;2023-04-28T12:37:49;16.15;;;4.18;;
50291;SDS011;36190;54.980;73.388;2023-04-28T12:40:18;12.23;;;3.90;;
50291;SDS011;36190;54.980;73.388;2023-04-28T12:42:45;11.77;;;3.50;;
50291;SDS011;36190;54.980;73.388;2023-04-28T12:45:14;45.47;;;36.83;;
50291;SDS011;36190;54.980;73.388;2023-04-28T12:47:41;159.57;;;92.72;;
50291;SDS011;36190;54.980;73.388;2023-04-28T12:50:09;186.68;;;118.82;;
50291;SDS011;36190;54.980;73.388;2023-04-28T12:52:38;163.63;;;120.70;;
50291;SDS011;36190;54.980;73.388;2023-04-28T12:55:06;149.35;;;120.50;;
50291;SDS011;36190;54.980;73.388;2023-04-28T12:57:34;143.43;;;112.88;;
50291;SDS011;36190;54.980;73.388;2023-04-28T13:00:02;127.78;;;103.05;;
50291;SDS011;36190;54.980;73.388;2023-04-28T13:02:30;107.50;;;86.30;;
50291;SDS011;36190;54.980;73.388;2023-04-28T13:04:57;130.10;;;87.60;;
50291;SDS011;36190;54.980;73.388;2023-04-28T13:07:26;107.18;;;87.00;;
50291;SDS011;36190;54.980;73.388;2023-04-28T13:09:55;114.20;;;91.93;;
50291;SDS011;36190;54.980;73.388;2023-04-28T13:12:23;127.93;;;102.38;;
50291;SDS011;36190;54.980;73.388;2023-04-28T13:14:52;126.20;;;111.78;;
50291;SDS011;36190;54.980;73.388;2023-04-28T13:17:19;139.02;;;112.88;;
50291;SDS011;36190;54.980;73.388;2023-04-28T13:19:47;136.35;;;117.43;;
50291;SDS011;36190;54.980;73.388;2023-04-28T13:22:14;136.07;;;110.50;;
50291;SDS011;36190;54.980;73.388;2023-04-28T13:24:42;125.18;;;108.97;;
50291;SDS011;36190;54.980;73.388;2023-04-28T13:27:11;130.38;;;114.68;;
50291;SDS011;36190;54.980;73.388;2023-04-28T13:29:38;127.97;;;105.97;;
50291;SDS011;36190;54.980;73.388;2023-04-28T13:32:07;126.57;;;110.75;;
50291;SDS011;36190;54.980;73.388;2023-04-28T13:34:34;128.38;;;111.55;;
50291;SDS011;36190;54.980;73.388;2023-04-28T13:37:02;126.90;;;109.55;;
50291;SDS011;36190;54.980;73.388;2023-04-28T13:39:30;127.78;;;111.03;;
50291;SDS011;36190;54.980;73.388;2023-04-28T13:41:58;132.25;;;111.60;;
50291;SDS011;36190;54.980;73.388;2023-04-28T13:44:27;121.15;;;104.32;;
50291;SDS011;36190;54.980;73.388;2023-04-28T13:46:54;110.35;;;95.53;;
50291;SDS011;36190;54.980;73.388;2023-04-28T13:49:22;104.43;;;90.05;;
50291;SDS011;36190;54.980;73.388;2023-04-28T13:51:49;96.32;;;83.53;;
50291;SDS011;36190;54.980;73.388;2023-04-28T13:54:17;97.78;;;83.22;;
50291;SDS011;36190;54.980;73.388;2023-04-28T13:56:47;86.07;;;72.93;;
50291;SDS011;36190;54.980;73.388;2023-04-28T13:59:14;76.80;;;67.18;;
50291;SDS011;36190;54.980;73.388;2023-04-28T14:01:43;78.10;;;64.88;;
50291;SDS011;36190;54.980;73.388;2023-04-28T14:04:11;77.00;;;64.72;;
50291;SDS011;36190;54.980;73.388;2023-04-28T14:06:39;66.30;;;57.17;;
50291;SDS011;36190;54.980;73.388;2023-04-28T14:09:06;66.65;;;55.42;;
50291;SDS011;36190;54.980;73.388;2023-04-28T14:11:34;63.53;;;52.42;;
50291;SDS011;36190;54.980;73.388;2023-04-28T14:14:02;64.22;;;50.13;;
50291;SDS011;36190;54.980;73.388;2023-04-28T14:16:30;52.42;;;44.40;;
50291;SDS011;36190;54.980;73.388;2023-04-28T14:18:59;51.60;;;45.03;;
50291;SDS011;36190;54.980;73.388;2023-04-28T14:21:26;57.08;;;45.38;;
50291;SDS011;36190;54.980;73.388;2023-04-28T14:23:54;53.97;;;47.15;;
50291;SDS011;36190;54.980;73.388;2023-04-28T14:26:21;56.55;;;48.58;;
50291;SDS011;36190;54.980;73.388;2023-04-28T14:28:49;65.03;;;53.40;;
50291;SDS011;36190;54.980;73.388;2023-04-28T14:31:17;88.22;;;73.28;;
50291;SDS011;36190;54.980;73.388;2023-04-28T14:33:44;187.95;;;159.65;;
50291;SDS011;36190;54.980;73.388;2023-04-28T14:36:13;270.58;;;238.50;;
50291;SDS011;36190;54.980;73.388;2023-04-28T14:38:40;300.75;;;264.45;;
50291;SDS011;36190;54.980;73.388;2023-04-28T14:41:08;321.52;;;279.65;;
50291;SDS011;36190;54.980;73.388;2023-04-28T14:43:36;336.98;;;288.15;;
50291;SDS011;36190;54.980;73.388;2023-04-28T14:46:03;320.77;;;282.83;;